createdAt,value
2022-11-17T13:04:24.722Z,97415.59
2022-11-17T13:07:08.140Z,97424.66
2022-11-17T13:09:36.309Z,97410.47
2022-11-17T13:12:07.703Z,97413.22
2022-11-17T13:14:35.930Z,97407.19
2022-11-17T13:17:02.941Z,97408.41
2022-11-17T13:19:33.021Z,97410.09
2022-11-17T13:22:13.723Z,97407.97
2022-11-17T13:24:41.988Z,97406.81
2022-11-17T13:27:27.289Z,97408.94
2022-11-17T13:30:12.664Z,97415.22
2022-11-17T13:32:40.327Z,97407.00
2022-11-17T13:35:23.274Z,97411.69
2022-11-17T13:38:06.621Z,97403.59
2022-11-17T13:40:34.891Z,97404.44
2022-11-17T13:43:03.284Z,97406.06
2022-11-17T13:45:29.954Z,97398.53
2022-11-17T13:47:58.229Z,97405.00
2022-11-17T13:50:27.557Z,97405.38
2022-11-17T13:52:56.080Z,97397.50
2022-11-17T13:55:24.051Z,97400.31
2022-11-17T13:58:26.902Z,97389.00
2022-11-17T14:00:57.207Z,97397.06
2022-11-17T14:03:37.135Z,97399.59
2022-11-17T14:06:13.849Z,97402.78
2022-11-17T14:08:42.828Z,97390.31
2022-11-17T14:11:12.334Z,97401.09
2022-11-17T14:13:43.368Z,97403.69
2022-11-17T14:16:21.523Z,97406.41
2022-11-17T14:19:02.840Z,97406.84
2022-11-17T14:21:30.456Z,97411.69
2022-11-17T14:24:11.400Z,97412.66
2022-11-17T14:26:44.646Z,97404.06
2022-11-17T14:29:12.632Z,97406.59
2022-11-17T14:31:39.191Z,97409.97
2022-11-17T14:34:05.717Z,97409.59
2022-11-17T14:36:32.631Z,97412.16
2022-11-17T14:39:00.688Z,97413.53
2022-11-17T14:41:27.243Z,97414.84
2022-11-17T14:43:53.797Z,97408.31
2022-11-17T14:46:26.872Z,97401.28
2022-11-17T14:48:54.086Z,97402.22
2022-11-17T14:51:21.267Z,97413.75
2022-11-17T14:53:48.178Z,97415.38
2022-11-17T14:56:17.727Z,97412.56
2022-11-17T14:58:45.158Z,97400.38
2022-11-17T15:01:15.555Z,97397.97
2022-11-17T15:03:42.083Z,97386.56
2022-11-17T15:06:09.545Z,97385.50
2022-11-17T15:08:36.707Z,97387.75
2022-11-17T15:11:04.086Z,97389.13
2022-11-17T15:13:31.126Z,97399.72
2022-11-17T15:16:05.053Z,97397.25
2022-11-17T15:18:32.191Z,97389.28
2022-11-17T15:21:04.694Z,97394.91
2022-11-17T15:23:31.762Z,97395.03
2022-11-17T15:25:58.618Z,97393.38
2022-11-17T15:28:29.089Z,97399.38
2022-11-17T15:30:57.043Z,97407.09
2022-11-17T15:33:23.912Z,97407.31
2022-11-17T15:36:03.641Z,97413.06
2022-11-17T15:38:31.458Z,97420.25
2022-11-17T15:40:57.999Z,97412.25
2022-11-17T15:43:32.405Z,97406.53
2022-11-17T15:46:06.768Z,97415.19
2022-11-17T15:48:34.558Z,97405.34
2022-11-17T15:51:05.130Z,97406.53
2022-11-17T15:53:32.943Z,97402.41
2022-11-17T15:56:08.206Z,97385.09
2022-11-17T15:58:34.935Z,97371.47
2022-11-17T16:01:28.366Z,97381.00
2022-11-17T16:04:00.855Z,97385.56
2022-11-17T16:06:28.430Z,97392.69
2022-11-17T16:08:54.991Z,97404.75
2022-11-17T16:11:21.917Z,97402.41
2022-11-17T16:13:48.469Z,97407.69
2022-11-17T16:16:15.706Z,97401.84
2022-11-17T16:18:48.184Z,97394.81
2022-11-17T16:21:15.599Z,97387.88
2022-11-17T16:23:44.389Z,97386.25
2022-11-17T16:26:12.031Z,97385.91
2022-11-17T16:28:39.089Z,97394.44
2022-11-17T16:31:22.741Z,97389.28
2022-11-17T16:33:54.490Z,97393.25
2022-11-17T16:36:23.568Z,97396.44
2022-11-17T16:39:01.882Z,97405.66
2022-11-17T16:41:31.892Z,97406.72
2022-11-17T16:43:58.632Z,97401.00
2022-11-17T16:46:29.057Z,97409.31
2022-11-17T16:48:56.465Z,97409.75
2022-11-17T16:51:23.034Z,97402.38
2022-11-17T16:53:55.832Z,97399.78
2022-11-17T16:56:22.434Z,97401.31
2022-11-17T16:58:50.041Z,97393.22
2022-11-17T17:01:18.916Z,97394.97
2022-11-17T17:03:45.687Z,97391.34
2022-11-17T17:06:14.241Z,97392.66
2022-11-17T17:08:41.113Z,97394.16
2022-11-17T17:11:16.101Z,97399.19
2022-11-17T17:13:43.222Z,97392.84
2022-11-17T17:16:12.122Z,97397.88
2022-11-17T17:18:39.065Z,97417.78
2022-11-17T17:21:06.448Z,97431.00
2022-11-17T17:23:34.384Z,97416.00
2022-11-17T17:26:08.339Z,97416.97
2022-11-17T17:28:36.866Z,97410.31
2022-11-17T17:31:04.251Z,97427.50
2022-11-17T17:33:32.527Z,97433.66
2022-11-17T17:36:07.324Z,97425.66
2022-11-17T17:38:34.032Z,97440.69
2022-11-17T17:41:08.299Z,97437.03
2022-11-17T17:43:35.378Z,97423.38
2022-11-17T17:46:02.982Z,97434.34
2022-11-17T17:48:33.725Z,97433.72
2022-11-17T17:51:04.732Z,97429.56
2022-11-17T17:53:31.685Z,97433.72
2022-11-17T17:55:59.622Z,97431.50
2022-11-17T17:58:26.175Z,97416.94
2022-11-17T18:00:52.872Z,97423.38
2022-11-17T18:03:19.479Z,97432.63
2022-11-17T18:05:46.691Z,97421.19
2022-11-17T18:08:13.234Z,97420.22
2022-11-17T18:10:39.878Z,97418.56
2022-11-17T18:13:10.608Z,97419.16
2022-11-17T18:15:39.583Z,97414.34
2022-11-17T18:18:06.314Z,97406.16
2022-11-17T18:20:32.858Z,97412.38
2022-11-17T18:22:59.403Z,97416.13
2022-11-17T18:25:25.918Z,97409.69
2022-11-17T18:27:52.455Z,97406.75
2022-11-17T18:30:19.075Z,97408.84
2022-11-17T18:32:45.639Z,97388.44
2022-11-17T18:35:12.221Z,97388.59
2022-11-17T18:37:38.754Z,97397.03
2022-11-17T18:40:05.844Z,97397.84
2022-11-17T18:42:32.567Z,97400.78
2022-11-17T18:44:59.158Z,97391.66
2022-11-17T18:47:25.708Z,97390.84
2022-11-17T18:49:52.345Z,97380.06
2022-11-17T18:52:19.000Z,97382.19
2022-11-17T18:54:45.697Z,97379.50
2022-11-17T18:57:12.543Z,97372.44
2022-11-17T18:59:39.092Z,97373.06
2022-11-17T19:02:05.759Z,97357.31
2022-11-17T19:04:32.475Z,97357.53
2022-11-17T19:06:59.067Z,97350.53
2022-11-17T19:09:25.745Z,97330.88
2022-11-17T19:11:52.802Z,97337.44
2022-11-17T19:14:19.361Z,97328.75
2022-11-17T19:16:45.996Z,97347.19
2022-11-17T19:19:13.475Z,97353.59
2022-11-17T19:21:40.536Z,97369.59
2022-11-17T19:24:07.614Z,97368.19
2022-11-17T19:26:35.839Z,97367.50
2022-11-17T19:29:05.356Z,97374.75
2022-11-17T19:31:33.034Z,97370.19
2022-11-17T19:33:59.743Z,97376.97
2022-11-17T19:36:29.390Z,97379.41
2022-11-17T19:38:57.973Z,97390.31
2022-11-17T19:41:26.673Z,97387.84
2022-11-17T19:43:53.775Z,97401.06
2022-11-17T19:46:20.634Z,97400.50
2022-11-17T19:48:47.277Z,97404.00
2022-11-17T19:51:19.906Z,97422.00
2022-11-17T19:53:52.389Z,97418.13
2022-11-17T19:56:19.521Z,97417.69
2022-11-17T19:58:46.751Z,97427.84
2022-11-17T20:01:15.758Z,97422.44
2022-11-17T20:03:42.979Z,97422.91
2022-11-17T20:06:11.396Z,97430.53
2022-11-17T20:08:38.172Z,97444.22
2022-11-17T20:11:07.115Z,97448.66
2022-11-17T20:13:34.138Z,97452.81
2022-11-17T20:16:05.190Z,97453.44
2022-11-17T20:18:35.542Z,97448.72
2022-11-17T20:21:08.031Z,97453.88
2022-11-17T20:23:35.407Z,97443.34
2022-11-17T20:26:12.714Z,97448.72
2022-11-17T20:28:39.319Z,97466.72
2022-11-17T20:31:10.416Z,97471.44
2022-11-17T20:33:41.534Z,97468.13
2022-11-17T20:36:09.758Z,97463.69
2022-11-17T20:38:36.533Z,97453.16
2022-11-17T20:41:03.835Z,97438.66
2022-11-17T20:43:32.869Z,97404.13
2022-11-17T20:45:59.580Z,97368.72
2022-11-17T20:48:27.631Z,97347.78
2022-11-17T20:50:58.250Z,97335.00
2022-11-17T20:53:25.229Z,97373.28
2022-11-17T20:55:51.930Z,97386.94
2022-11-17T20:58:18.551Z,97385.53
2022-11-17T21:00:45.227Z,97399.66
2022-11-17T21:03:11.837Z,97405.03
2022-11-17T21:05:38.408Z,97409.44
2022-11-17T21:08:05.298Z,97440.38
2022-11-17T21:10:31.984Z,97435.22
2022-11-17T21:12:58.838Z,97411.47
2022-11-17T21:15:25.502Z,97413.09
2022-11-17T21:18:10.273Z,97405.03
2022-11-17T21:20:36.777Z,97401.06
2022-11-17T21:23:03.350Z,97391.94
2022-11-17T21:25:29.859Z,97384.69
2022-11-17T21:27:56.670Z,97390.31
2022-11-17T21:30:23.187Z,97385.34
2022-11-17T21:32:49.745Z,97408.19
2022-11-17T21:35:16.227Z,97398.09
2022-11-17T21:37:42.717Z,97389.22
2022-11-17T21:40:09.610Z,97398.56
2022-11-17T21:42:36.399Z,97397.88
2022-11-17T21:45:03.007Z,97383.81
2022-11-17T21:47:29.534Z,97383.47
2022-11-17T21:49:56.058Z,97373.16
2022-11-17T21:52:22.680Z,97374.19
2022-11-17T21:54:49.162Z,97377.94
2022-11-17T21:57:15.707Z,97380.16
2022-11-17T21:59:42.204Z,97387.66
2022-11-17T22:02:09.919Z,97396.53
2022-11-17T22:04:36.465Z,97402.38
2022-11-17T22:07:03.069Z,97409.84
2022-11-17T22:09:29.623Z,97402.00
2022-11-17T22:11:56.324Z,97396.25
2022-11-17T22:14:22.991Z,97384.25
2022-11-17T22:16:53.611Z,97356.53
2022-11-17T22:19:21.859Z,97333.34
2022-11-17T22:21:50.096Z,97317.47
2022-11-17T22:24:17.178Z,97317.47
2022-11-17T22:26:44.345Z,97352.63
